sensor_id;sensor_type;location;lat;lon;timestamp;P1;durP1;ratioP1;P2;durP2;ratioP2
11305;SDS011;5708;50.660;6.778;2023-02-15T00:01:08;44.83;;;24.90;;
11305;SDS011;5708;50.660;6.778;2023-02-15T00:03:35;44.63;;;22.70;;
11305;SDS011;5708;50.660;6.778;2023-02-15T00:06:00;46.45;;;24.77;;
11305;SDS011;5708;50.660;6.778;2023-02-15T00:08:26;49.45;;;24.90;;
11305;SDS011;5708;50.660;6.778;2023-02-15T00:10:52;45.45;;;23.13;;
11305;SDS011;5708;50.660;6.778;2023-02-15T00:13:17;48.03;;;24.05;;
11305;SDS011;5708;50.660;6.778;2023-02-15T00:15:42;47.55;;;24.08;;
11305;SDS011;5708;50.660;6.778;2023-02-15T00:18:08;48.28;;;23.63;;
11305;SDS011;5708;50.660;6.778;2023-02-15T00:20:33;50.05;;;24.23;;
11305;SDS011;5708;50.660;6.778;2023-02-15T00:22:59;50.60;;;23.88;;
11305;SDS011;5708;50.660;6.778;2023-02-15T00:25:25;49.28;;;24.38;;
11305;SDS011;5708;50.660;6.778;2023-02-15T00:27:50;47.60;;;23.48;;
11305;SDS011;5708;50.660;6.778;2023-02-15T00:30:19;52.20;;;23.20;;
11305;SDS011;5708;50.660;6.778;2023-02-15T00:32:46;47.53;;;22.42;;
11305;SDS011;5708;50.660;6.778;2023-02-15T00:35:12;47.35;;;21.77;;
11305;SDS011;5708;50.660;6.778;2023-02-15T00:37:38;52.15;;;22.63;;
11305;SDS011;5708;50.660;6.778;2023-02-15T00:40:03;49.90;;;22.83;;
11305;SDS011;5708;50.660;6.778;2023-02-15T00:42:29;48.38;;;23.38;;
11305;SDS011;5708;50.660;6.778;2023-02-15T00:44:54;49.35;;;22.40;;
11305;SDS011;5708;50.660;6.778;2023-02-15T00:47:20;46.05;;;21.88;;
11305;SDS011;5708;50.660;6.778;2023-02-15T00:49:45;45.15;;;22.23;;
11305;SDS011;5708;50.660;6.778;2023-02-15T00:52:11;47.08;;;22.10;;
11305;SDS011;5708;50.660;6.778;2023-02-15T00:54:36;51.47;;;23.25;;
11305;SDS011;5708;50.660;6.778;2023-02-15T00:57:03;52.20;;;24.40;;
11305;SDS011;5708;50.660;6.778;2023-02-15T00:59:28;47.45;;;23.40;;
11305;SDS011;5708;50.660;6.778;2023-02-15T01:01:54;50.15;;;24.92;;
11305;SDS011;5708;50.660;6.778;2023-02-15T01:04:19;48.60;;;25.10;;
11305;SDS011;5708;50.660;6.778;2023-02-15T01:06:44;56.13;;;26.52;;
11305;SDS011;5708;50.660;6.778;2023-02-15T01:09:10;55.35;;;26.48;;
11305;SDS011;5708;50.660;6.778;2023-02-15T01:11:37;55.70;;;26.65;;
11305;SDS011;5708;50.660;6.778;2023-02-15T01:14:02;52.58;;;25.88;;
11305;SDS011;5708;50.660;6.778;2023-02-15T01:16:29;54.22;;;25.35;;
11305;SDS011;5708;50.660;6.778;2023-02-15T01:18:54;57.85;;;26.65;;
11305;SDS011;5708;50.660;6.778;2023-02-15T01:21:20;54.28;;;26.75;;
11305;SDS011;5708;50.660;6.778;2023-02-15T01:23:47;57.03;;;26.13;;
11305;SDS011;5708;50.660;6.778;2023-02-15T01:26:13;53.28;;;25.27;;
11305;SDS011;5708;50.660;6.778;2023-02-15T01:28:39;50.83;;;26.20;;
11305;SDS011;5708;50.660;6.778;2023-02-15T01:31:05;50.00;;;24.45;;
11305;SDS011;5708;50.660;6.778;2023-02-15T01:33:35;51.95;;;25.75;;
11305;SDS011;5708;50.660;6.778;2023-02-15T01:36:01;53.70;;;25.23;;
11305;SDS011;5708;50.660;6.778;2023-02-15T01:38:27;55.28;;;25.63;;
11305;SDS011;5708;50.660;6.778;2023-02-15T01:40:52;56.50;;;25.30;;
11305;SDS011;5708;50.660;6.778;2023-02-15T01:43:18;54.25;;;25.63;;
11305;SDS011;5708;50.660;6.778;2023-02-15T01:45:44;57.47;;;26.52;;
11305;SDS011;5708;50.660;6.778;2023-02-15T01:48:19;60.00;;;25.98;;
11305;SDS011;5708;50.660;6.778;2023-02-15T01:50:48;60.50;;;29.02;;
11305;SDS011;5708;50.660;6.778;2023-02-15T01:53:17;63.20;;;29.50;;
11305;SDS011;5708;50.660;6.778;2023-02-15T01:56:27;58.22;;;28.77;;
11305;SDS011;5708;50.660;6.778;2023-02-15T01:58:55;71.72;;;36.13;;
11305;SDS011;5708;50.660;6.778;2023-02-15T02:01:23;86.22;;;44.53;;
11305;SDS011;5708;50.660;6.778;2023-02-15T02:06:27;87.28;;;43.15;;
11305;SDS011;5708;50.660;6.778;2023-02-15T02:08:53;83.68;;;42.15;;
11305;SDS011;5708;50.660;6.778;2023-02-15T02:11:18;79.40;;;39.22;;
11305;SDS011;5708;50.660;6.778;2023-02-15T02:13:44;78.43;;;39.70;;
11305;SDS011;5708;50.660;6.778;2023-02-15T02:21:51;63.47;;;30.65;;
11305;SDS011;5708;50.660;6.778;2023-02-15T02:27:22;60.45;;;30.13;;
11305;SDS011;5708;50.660;6.778;2023-02-15T02:44:02;52.88;;;25.42;;
11305;SDS011;5708;50.660;6.778;2023-02-15T02:46:37;57.63;;;27.15;;
11305;SDS011;5708;50.660;6.778;2023-02-15T02:49:06;52.13;;;25.25;;
11305;SDS011;5708;50.660;6.778;2023-02-15T02:51:31;53.78;;;24.92;;
11305;SDS011;5708;50.660;6.778;2023-02-15T02:53:57;54.75;;;25.65;;
11305;SDS011;5708;50.660;6.778;2023-02-15T02:56:27;59.80;;;26.10;;
11305;SDS011;5708;50.660;6.778;2023-02-15T02:58:56;51.25;;;25.17;;
11305;SDS011;5708;50.660;6.778;2023-02-15T03:01:44;54.28;;;25.35;;
11305;SDS011;5708;50.660;6.778;2023-02-15T03:04:35;49.88;;;25.20;;
11305;SDS011;5708;50.660;6.778;2023-02-15T03:07:06;53.33;;;25.40;;
11305;SDS011;5708;50.660;6.778;2023-02-15T03:09:42;53.90;;;25.75;;
11305;SDS011;5708;50.660;6.778;2023-02-15T03:12:12;50.13;;;24.35;;
11305;SDS011;5708;50.660;6.778;2023-02-15T03:14:39;52.08;;;24.92;;
11305;SDS011;5708;50.660;6.778;2023-02-15T03:17:06;49.15;;;24.35;;
11305;SDS011;5708;50.660;6.778;2023-02-15T03:19:33;52.30;;;24.67;;
11305;SDS011;5708;50.660;6.778;2023-02-15T03:22:03;56.60;;;26.02;;
11305;SDS011;5708;50.660;6.778;2023-02-15T03:25:20;51.53;;;24.05;;
11305;SDS011;5708;50.660;6.778;2023-02-15T03:27:47;54.63;;;24.77;;
11305;SDS011;5708;50.660;6.778;2023-02-15T03:30:15;52.22;;;24.58;;
11305;SDS011;5708;50.660;6.778;2023-02-15T03:32:43;49.33;;;23.70;;
11305;SDS011;5708;50.660;6.778;2023-02-15T03:35:09;49.45;;;24.73;;
11305;SDS011;5708;50.660;6.778;2023-02-15T03:40:10;55.40;;;26.85;;
11305;SDS011;5708;50.660;6.778;2023-02-15T03:42:59;53.72;;;25.52;;
11305;SDS011;5708;50.660;6.778;2023-02-15T03:45:28;55.72;;;27.45;;
11305;SDS011;5708;50.660;6.778;2023-02-15T03:47:55;50.53;;;24.70;;
11305;SDS011;5708;50.660;6.778;2023-02-15T03:50:23;52.45;;;25.20;;
11305;SDS011;5708;50.660;6.778;2023-02-15T03:53:10;58.13;;;24.35;;
11305;SDS011;5708;50.660;6.778;2023-02-15T03:55:38;52.35;;;25.08;;
11305;SDS011;5708;50.660;6.778;2023-02-15T03:58:03;55.97;;;25.00;;
11305;SDS011;5708;50.660;6.778;2023-02-15T04:01:03;54.95;;;25.58;;
11305;SDS011;5708;50.660;6.778;2023-02-15T04:03:51;48.95;;;24.40;;
11305;SDS011;5708;50.660;6.778;2023-02-15T04:06:18;48.88;;;23.95;;
11305;SDS011;5708;50.660;6.778;2023-02-15T04:08:44;49.40;;;23.58;;
11305;SDS011;5708;50.660;6.778;2023-02-15T04:11:27;62.53;;;25.67;;
11305;SDS011;5708;50.660;6.778;2023-02-15T04:13:56;55.42;;;26.00;;
11305;SDS011;5708;50.660;6.778;2023-02-15T04:16:22;57.58;;;27.92;;
11305;SDS011;5708;50.660;6.778;2023-02-15T04:18:48;59.70;;;27.92;;
11305;SDS011;5708;50.660;6.778;2023-02-15T04:21:32;60.92;;;27.92;;
11305;SDS011;5708;50.660;6.778;2023-02-15T04:24:16;61.85;;;28.83;;
11305;SDS011;5708;50.660;6.778;2023-02-15T04:27:01;67.00;;;31.00;;
11305;SDS011;5708;50.660;6.778;2023-02-15T04:29:27;70.47;;;34.88;;
11305;SDS011;5708;50.660;6.778;2023-02-15T04:31:54;66.93;;;32.10;;
11305;SDS011;5708;50.660;6.778;2023-02-15T04:34:20;77.78;;;40.03;;
11305;SDS011;5708;50.660;6.778;2023-02-15T04:36:45;89.05;;;43.10;;
11305;SDS011;5708;50.660;6.778;2023-02-15T04:39:12;98.75;;;47.97;;
11305;SDS011;5708;50.660;6.778;2023-02-15T04:41:38;85.50;;;42.58;;
11305;SDS011;5708;50.660;6.778;2023-02-15T04:44:04;92.40;;;44.00;;
11305;SDS011;5708;50.660;6.778;2023-02-15T04:46:29;87.07;;;43.70;;
11305;SDS011;5708;50.660;6.778;2023-02-15T04:48:54;85.55;;;42.22;;
11305;SDS011;5708;50.660;6.778;2023-02-15T04:51:20;78.47;;;39.25;;
11305;SDS011;5708;50.660;6.778;2023-02-15T04:53:45;72.43;;;36.65;;
11305;SDS011;5708;50.660;6.778;2023-02-15T04:56:11;71.38;;;33.92;;
11305;SDS011;5708;50.660;6.778;2023-02-15T04:58:36;70.15;;;35.35;;
11305;SDS011;5708;50.660;6.778;2023-02-15T05:01:05;69.28;;;34.08;;
11305;SDS011;5708;50.660;6.778;2023-02-15T05:03:31;67.78;;;32.88;;
11305;SDS011;5708;50.660;6.778;2023-02-15T05:05:56;57.83;;;28.55;;
11305;SDS011;5708;50.660;6.778;2023-02-15T05:08:22;65.68;;;30.70;;
11305;SDS011;5708;50.660;6.778;2023-02-15T05:10:48;56.63;;;26.80;;
11305;SDS011;5708;50.660;6.778;2023-02-15T05:13:17;56.22;;;25.05;;
11305;SDS011;5708;50.660;6.778;2023-02-15T05:15:46;57.00;;;26.40;;
11305;SDS011;5708;50.660;6.778;2023-02-15T05:18:12;52.53;;;25.45;;
11305;SDS011;5708;50.660;6.778;2023-02-15T05:20:38;54.85;;;24.77;;
11305;SDS011;5708;50.660;6.778;2023-02-15T05:23:03;58.47;;;27.83;;
11305;SDS011;5708;50.660;6.778;2023-02-15T05:25:28;55.40;;;27.42;;
11305;SDS011;5708;50.660;6.778;2023-02-15T05:28:12;61.33;;;30.45;;
11305;SDS011;5708;50.660;6.778;2023-02-15T05:30:51;54.28;;;28.17;;
11305;SDS011;5708;50.660;6.778;2023-02-15T05:33:24;69.40;;;34.38;;
11305;SDS011;5708;50.660;6.778;2023-02-15T05:35:49;66.60;;;33.80;;
11305;SDS011;5708;50.660;6.778;2023-02-15T05:38:16;65.75;;;35.40;;
11305;SDS011;5708;50.660;6.778;2023-02-15T05:40:41;83.10;;;42.85;;
11305;SDS011;5708;50.660;6.778;2023-02-15T05:43:06;75.57;;;40.50;;
11305;SDS011;5708;50.660;6.778;2023-02-15T05:45:32;72.85;;;38.25;;
11305;SDS011;5708;50.660;6.778;2023-02-15T05:47:57;69.90;;;37.05;;
11305;SDS011;5708;50.660;6.778;2023-02-15T05:50:23;64.30;;;30.63;;
11305;SDS011;5708;50.660;6.778;2023-02-15T05:52:49;59.40;;;29.75;;
11305;SDS011;5708;50.660;6.778;2023-02-15T05:55:14;56.25;;;27.40;;
11305;SDS011;5708;50.660;6.778;2023-02-15T05:57:39;56.17;;;27.98;;
11305;SDS011;5708;50.660;6.778;2023-02-15T06:00:05;58.17;;;29.60;;
11305;SDS011;5708;50.660;6.778;2023-02-15T06:02:34;53.67;;;26.13;;
11305;SDS011;5708;50.660;6.778;2023-02-15T06:05:00;54.53;;;26.20;;
11305;SDS011;5708;50.660;6.778;2023-02-15T06:07:25;51.80;;;24.58;;
11305;SDS011;5708;50.660;6.778;2023-02-15T06:09:50;55.22;;;25.90;;
11305;SDS011;5708;50.660;6.778;2023-02-15T06:12:16;50.40;;;24.65;;
11305;SDS011;5708;50.660;6.778;2023-02-15T06:14:41;49.08;;;25.17;;
11305;SDS011;5708;50.660;6.778;2023-02-15T06:17:06;49.22;;;24.83;;
11305;SDS011;5708;50.660;6.778;2023-02-15T06:19:32;48.72;;;23.27;;
11305;SDS011;5708;50.660;6.778;2023-02-15T06:21:57;49.70;;;23.58;;
11305;SDS011;5708;50.660;6.778;2023-02-15T06:24:22;48.13;;;22.92;;
11305;SDS011;5708;50.660;6.778;2023-02-15T06:26:48;55.40;;;24.85;;
11305;SDS011;5708;50.660;6.778;2023-02-15T06:29:13;50.78;;;23.60;;
11305;SDS011;5708;50.660;6.778;2023-02-15T06:31:38;51.40;;;24.45;;
11305;SDS011;5708;50.660;6.778;2023-02-15T06:34:04;48.15;;;24.23;;
11305;SDS011;5708;50.660;6.778;2023-02-15T06:36:30;51.95;;;24.13;;
11305;SDS011;5708;50.660;6.778;2023-02-15T06:38:57;45.58;;;22.70;;
11305;SDS011;5708;50.660;6.778;2023-02-15T06:41:23;51.00;;;24.70;;
11305;SDS011;5708;50.660;6.778;2023-02-15T06:43:49;71.43;;;35.65;;
11305;SDS011;5708;50.660;6.778;2023-02-15T06:46:14;62.88;;;29.45;;
11305;SDS011;5708;50.660;6.778;2023-02-15T06:48:40;64.97;;;32.22;;
11305;SDS011;5708;50.660;6.778;2023-02-15T06:51:05;65.40;;;31.88;;
11305;SDS011;5708;50.660;6.778;2023-02-15T06:53:30;62.13;;;32.40;;
11305;SDS011;5708;50.660;6.778;2023-02-15T06:58:37;81.85;;;39.08;;
11305;SDS011;5708;50.660;6.778;2023-02-15T07:01:06;76.38;;;36.58;;
11305;SDS011;5708;50.660;6.778;2023-02-15T07:03:32;66.32;;;32.70;;
11305;SDS011;5708;50.660;6.778;2023-02-15T07:05:58;68.22;;;34.40;;
11305;SDS011;5708;50.660;6.778;2023-02-15T07:08:26;67.28;;;33.90;;
11305;SDS011;5708;50.660;6.778;2023-02-15T07:10:52;62.67;;;32.30;;
11305;SDS011;5708;50.660;6.778;2023-02-15T07:13:18;61.08;;;29.10;;
11305;SDS011;5708;50.660;6.778;2023-02-15T07:15:44;61.58;;;29.30;;
11305;SDS011;5708;50.660;6.778;2023-02-15T07:18:11;62.05;;;28.85;;
11305;SDS011;5708;50.660;6.778;2023-02-15T07:20:36;54.63;;;26.58;;
11305;SDS011;5708;50.660;6.778;2023-02-15T07:23:02;54.85;;;27.23;;
11305;SDS011;5708;50.660;6.778;2023-02-15T07:25:28;57.15;;;27.40;;
11305;SDS011;5708;50.660;6.778;2023-02-15T07:28:01;49.22;;;24.27;;
11305;SDS011;5708;50.660;6.778;2023-02-15T07:30:27;54.88;;;26.35;;
11305;SDS011;5708;50.660;6.778;2023-02-15T07:32:56;50.70;;;25.63;;
11305;SDS011;5708;50.660;6.778;2023-02-15T07:35:51;53.78;;;28.38;;
11305;SDS011;5708;50.660;6.778;2023-02-15T07:38:18;54.00;;;27.30;;
11305;SDS011;5708;50.660;6.778;2023-02-15T07:40:44;46.65;;;25.23;;
11305;SDS011;5708;50.660;6.778;2023-02-15T07:43:09;48.85;;;22.77;;
11305;SDS011;5708;50.660;6.778;2023-02-15T07:45:35;40.47;;;21.17;;
11305;SDS011;5708;50.660;6.778;2023-02-15T07:48:01;45.08;;;21.20;;
11305;SDS011;5708;50.660;6.778;2023-02-15T07:50:27;38.92;;;21.05;;
11305;SDS011;5708;50.660;6.778;2023-02-15T07:52:53;40.08;;;19.48;;
11305;SDS011;5708;50.660;6.778;2023-02-15T07:55:18;37.08;;;19.63;;
11305;SDS011;5708;50.660;6.778;2023-02-15T07:57:44;39.15;;;19.15;;
11305;SDS011;5708;50.660;6.778;2023-02-15T08:00:11;33.67;;;19.05;;
11305;SDS011;5708;50.660;6.778;2023-02-15T08:02:38;36.72;;;17.52;;
11305;SDS011;5708;50.660;6.778;2023-02-15T08:05:04;37.33;;;19.17;;
11305;SDS011;5708;50.660;6.778;2023-02-15T08:07:30;36.28;;;17.90;;
11305;SDS011;5708;50.660;6.778;2023-02-15T08:09:55;30.95;;;16.70;;
11305;SDS011;5708;50.660;6.778;2023-02-15T08:12:20;34.83;;;17.33;;
11305;SDS011;5708;50.660;6.778;2023-02-15T08:14:46;33.92;;;17.90;;
11305;SDS011;5708;50.660;6.778;2023-02-15T08:17:11;31.95;;;16.55;;
11305;SDS011;5708;50.660;6.778;2023-02-15T08:19:36;33.33;;;16.63;;
11305;SDS011;5708;50.660;6.778;2023-02-15T08:22:03;32.30;;;18.08;;
11305;SDS011;5708;50.660;6.778;2023-02-15T08:24:30;28.42;;;16.13;;
11305;SDS011;5708;50.660;6.778;2023-02-15T08:26:57;29.25;;;16.30;;
11305;SDS011;5708;50.660;6.778;2023-02-15T08:29:24;32.33;;;17.67;;
11305;SDS011;5708;50.660;6.778;2023-02-15T08:31:59;30.35;;;16.55;;
11305;SDS011;5708;50.660;6.778;2023-02-15T08:34:29;36.17;;;17.63;;
11305;SDS011;5708;50.660;6.778;2023-02-15T08:36:56;30.23;;;16.55;;
11305;SDS011;5708;50.660;6.778;2023-02-15T08:39:21;31.80;;;17.20;;
11305;SDS011;5708;50.660;6.778;2023-02-15T08:41:47;29.58;;;16.38;;
11305;SDS011;5708;50.660;6.778;2023-02-15T08:44:14;29.85;;;16.02;;
11305;SDS011;5708;50.660;6.778;2023-02-15T08:46:41;28.40;;;16.30;;
11305;SDS011;5708;50.660;6.778;2023-02-15T08:49:07;28.48;;;16.10;;
11305;SDS011;5708;50.660;6.778;2023-02-15T08:51:34;31.05;;;16.80;;
11305;SDS011;5708;50.660;6.778;2023-02-15T08:54:02;32.80;;;16.83;;
11305;SDS011;5708;50.660;6.778;2023-02-15T08:56:30;32.45;;;16.48;;
11305;SDS011;5708;50.660;6.778;2023-02-15T08:58:58;29.42;;;16.63;;
11305;SDS011;5708;50.660;6.778;2023-02-15T09:01:24;28.67;;;15.82;;
11305;SDS011;5708;50.660;6.778;2023-02-15T09:03:55;29.30;;;15.93;;
11305;SDS011;5708;50.660;6.778;2023-02-15T09:06:30;29.02;;;16.75;;
11305;SDS011;5708;50.660;6.778;2023-02-15T09:08:56;29.90;;;16.52;;
11305;SDS011;5708;50.660;6.778;2023-02-15T09:11:22;30.50;;;17.35;;
11305;SDS011;5708;50.660;6.778;2023-02-15T09:13:51;27.73;;;15.63;;
11305;SDS011;5708;50.660;6.778;2023-02-15T09:16:21;28.50;;;16.30;;
11305;SDS011;5708;50.660;6.778;2023-02-15T09:18:47;32.47;;;16.20;;
11305;SDS011;5708;50.660;6.778;2023-02-15T09:21:14;27.42;;;15.52;;
11305;SDS011;5708;50.660;6.778;2023-02-15T09:23:41;28.38;;;15.95;;
11305;SDS011;5708;50.660;6.778;2023-02-15T09:26:09;28.08;;;15.18;;
11305;SDS011;5708;50.660;6.778;2023-02-15T09:28:36;28.70;;;16.35;;
11305;SDS011;5708;50.660;6.778;2023-02-15T09:31:12;29.15;;;15.90;;
11305;SDS011;5708;50.660;6.778;2023-02-15T09:33:38;29.50;;;16.45;;
11305;SDS011;5708;50.660;6.778;2023-02-15T09:36:05;26.15;;;15.32;;
11305;SDS011;5708;50.660;6.778;2023-02-15T09:38:37;31.08;;;15.48;;
11305;SDS011;5708;50.660;6.778;2023-02-15T09:46:40;29.60;;;15.95;;
11305;SDS011;5708;50.660;6.778;2023-02-15T09:49:19;28.17;;;14.57;;
11305;SDS011;5708;50.660;6.778;2023-02-15T09:51:58;32.50;;;16.00;;
11305;SDS011;5708;50.660;6.778;2023-02-15T09:56:58;25.30;;;15.27;;
11305;SDS011;5708;50.660;6.778;2023-02-15T09:59:32;27.35;;;15.90;;
11305;SDS011;5708;50.660;6.778;2023-02-15T10:21:17;33.28;;;15.32;;
11305;SDS011;5708;50.660;6.778;2023-02-15T10:28:57;27.40;;;15.32;;
11305;SDS011;5708;50.660;6.778;2023-02-15T10:31:37;27.48;;;14.65;;
11305;SDS011;5708;50.660;6.778;2023-02-15T10:34:15;26.63;;;14.23;;
11305;SDS011;5708;50.660;6.778;2023-02-15T10:50:15;24.48;;;13.82;;
11305;SDS011;5708;50.660;6.778;2023-02-15T10:52:58;26.33;;;13.38;;
11305;SDS011;5708;50.660;6.778;2023-02-15T10:55:52;26.90;;;13.95;;
11305;SDS011;5708;50.660;6.778;2023-02-15T11:06:59;22.17;;;14.32;;
11305;SDS011;5708;50.660;6.778;2023-02-15T11:09:42;22.58;;;13.02;;
11305;SDS011;5708;50.660;6.778;2023-02-15T11:12:14;22.65;;;13.63;;
11305;SDS011;5708;50.660;6.778;2023-02-15T11:17:33;20.42;;;12.65;;
11305;SDS011;5708;50.660;6.778;2023-02-15T11:23:08;22.73;;;13.25;;
11305;SDS011;5708;50.660;6.778;2023-02-15T11:25:40;24.40;;;12.95;;
11305;SDS011;5708;50.660;6.778;2023-02-15T11:28:10;21.83;;;13.43;;
11305;SDS011;5708;50.660;6.778;2023-02-15T11:30:51;24.90;;;14.32;;
11305;SDS011;5708;50.660;6.778;2023-02-15T11:33:55;24.25;;;13.77;;
11305;SDS011;5708;50.660;6.778;2023-02-15T11:36:17;24.95;;;15.20;;
11305;SDS011;5708;50.660;6.778;2023-02-15T11:38:49;22.73;;;13.45;;
11305;SDS011;5708;50.660;6.778;2023-02-15T11:41:21;26.85;;;15.75;;
11305;SDS011;5708;50.660;6.778;2023-02-15T11:43:52;27.33;;;16.02;;
11305;SDS011;5708;50.660;6.778;2023-02-15T11:46:19;26.00;;;15.23;;
11305;SDS011;5708;50.660;6.778;2023-02-15T11:48:46;25.40;;;14.60;;
11305;SDS011;5708;50.660;6.778;2023-02-15T11:51:13;26.73;;;16.30;;
11305;SDS011;5708;50.660;6.778;2023-02-15T11:53:41;24.67;;;15.48;;
11305;SDS011;5708;50.660;6.778;2023-02-15T11:56:15;27.98;;;17.50;;
11305;SDS011;5708;50.660;6.778;2023-02-15T12:04:04;27.00;;;14.35;;
11305;SDS011;5708;50.660;6.778;2023-02-15T12:06:33;24.70;;;13.43;;
11305;SDS011;5708;50.660;6.778;2023-02-15T12:11:53;26.13;;;15.32;;
11305;SDS011;5708;50.660;6.778;2023-02-15T12:14:19;25.80;;;13.65;;
11305;SDS011;5708;50.660;6.778;2023-02-15T12:16:48;24.23;;;13.95;;
11305;SDS011;5708;50.660;6.778;2023-02-15T12:19:32;21.95;;;13.18;;
11305;SDS011;5708;50.660;6.778;2023-02-15T12:22:02;22.75;;;13.95;;
11305;SDS011;5708;50.660;6.778;2023-02-15T12:24:32;24.08;;;13.90;;
11305;SDS011;5708;50.660;6.778;2023-02-15T12:27:23;22.58;;;13.77;;
11305;SDS011;5708;50.660;6.778;2023-02-15T12:29:48;21.85;;;13.73;;
11305;SDS011;5708;50.660;6.778;2023-02-15T12:32:19;28.50;;;15.20;;
11305;SDS011;5708;50.660;6.778;2023-02-15T12:34:48;21.67;;;14.20;;
11305;SDS011;5708;50.660;6.778;2023-02-15T12:37:25;23.83;;;14.43;;
11305;SDS011;5708;50.660;6.778;2023-02-15T12:39:56;25.17;;;15.18;;
11305;SDS011;5708;50.660;6.778;2023-02-15T12:42:24;26.70;;;13.70;;
11305;SDS011;5708;50.660;6.778;2023-02-15T12:44:54;23.10;;;14.25;;
11305;SDS011;5708;50.660;6.778;2023-02-15T12:47:27;23.25;;;14.18;;
11305;SDS011;5708;50.660;6.778;2023-02-15T12:52:42;21.27;;;13.20;;
11305;SDS011;5708;50.660;6.778;2023-02-15T13:00:42;22.48;;;14.25;;
11305;SDS011;5708;50.660;6.778;2023-02-15T13:03:14;25.58;;;13.80;;
11305;SDS011;5708;50.660;6.778;2023-02-15T13:05:44;22.02;;;13.68;;
11305;SDS011;5708;50.660;6.778;2023-02-15T13:13:28;22.42;;;13.85;;
11305;SDS011;5708;50.660;6.778;2023-02-15T13:16:02;20.38;;;12.80;;
11305;SDS011;5708;50.660;6.778;2023-02-15T13:18:38;23.55;;;13.52;;
11305;SDS011;5708;50.660;6.778;2023-02-15T13:21:14;21.15;;;13.60;;
11305;SDS011;5708;50.660;6.778;2023-02-15T13:23:46;21.70;;;13.02;;
11305;SDS011;5708;50.660;6.778;2023-02-15T13:26:32;22.35;;;13.35;;
11305;SDS011;5708;50.660;6.778;2023-02-15T13:29:03;20.08;;;13.02;;
11305;SDS011;5708;50.660;6.778;2023-02-15T13:31:33;22.25;;;13.52;;
11305;SDS011;5708;50.660;6.778;2023-02-15T13:34:20;23.55;;;14.13;;
11305;SDS011;5708;50.660;6.778;2023-02-15T13:41:56;22.90;;;13.70;;
11305;SDS011;5708;50.660;6.778;2023-02-15T13:46:58;20.85;;;13.13;;
11305;SDS011;5708;50.660;6.778;2023-02-15T13:52:27;21.95;;;13.52;;
11305;SDS011;5708;50.660;6.778;2023-02-15T14:10:59;22.88;;;13.80;;
11305;SDS011;5708;50.660;6.778;2023-02-15T14:21:31;25.15;;;14.02;;
11305;SDS011;5708;50.660;6.778;2023-02-15T14:24:43;24.27;;;13.93;;
11305;SDS011;5708;50.660;6.778;2023-02-15T14:29:51;24.38;;;14.00;;
11305;SDS011;5708;50.660;6.778;2023-02-15T14:32:41;22.05;;;13.57;;
11305;SDS011;5708;50.660;6.778;2023-02-15T14:35:17;26.38;;;14.43;;
11305;SDS011;5708;50.660;6.778;2023-02-15T14:49:06;24.48;;;13.90;;
11305;SDS011;5708;50.660;6.778;2023-02-15T14:54:08;20.88;;;13.60;;
11305;SDS011;5708;50.660;6.778;2023-02-15T14:56:46;24.17;;;13.05;;
11305;SDS011;5708;50.660;6.778;2023-02-15T15:01:57;20.95;;;13.10;;
11305;SDS011;5708;50.660;6.778;2023-02-15T15:07:12;20.92;;;13.02;;
11305;SDS011;5708;50.660;6.778;2023-02-15T15:09:43;23.98;;;14.02;;
11305;SDS011;5708;50.660;6.778;2023-02-15T15:12:15;22.95;;;13.85;;
11305;SDS011;5708;50.660;6.778;2023-02-15T15:14:47;20.25;;;13.80;;
11305;SDS011;5708;50.660;6.778;2023-02-15T15:17:51;22.58;;;13.70;;
11305;SDS011;5708;50.660;6.778;2023-02-15T15:20:08;23.00;;;13.73;;
11305;SDS011;5708;50.660;6.778;2023-02-15T15:22:38;23.38;;;13.88;;
11305;SDS011;5708;50.660;6.778;2023-02-15T15:25:11;22.98;;;13.80;;
11305;SDS011;5708;50.660;6.778;2023-02-15T15:27:58;22.48;;;14.18;;
11305;SDS011;5708;50.660;6.778;2023-02-15T15:35:27;23.45;;;14.07;;
11305;SDS011;5708;50.660;6.778;2023-02-15T15:48:59;21.85;;;13.45;;
11305;SDS011;5708;50.660;6.778;2023-02-15T15:51:29;20.70;;;12.93;;
11305;SDS011;5708;50.660;6.778;2023-02-15T15:53:56;26.20;;;14.45;;
11305;SDS011;5708;50.660;6.778;2023-02-15T15:56:31;23.80;;;14.73;;
11305;SDS011;5708;50.660;6.778;2023-02-15T15:59:06;25.50;;;15.32;;
11305;SDS011;5708;50.660;6.778;2023-02-15T16:01:39;27.35;;;14.98;;
11305;SDS011;5708;50.660;6.778;2023-02-15T16:04:10;25.20;;;14.07;;
11305;SDS011;5708;50.660;6.778;2023-02-15T16:06:38;18.98;;;13.02;;
11305;SDS011;5708;50.660;6.778;2023-02-15T16:11:44;22.58;;;13.88;;
11305;SDS011;5708;50.660;6.778;2023-02-15T16:14:12;19.17;;;12.73;;
11305;SDS011;5708;50.660;6.778;2023-02-15T16:16:46;21.15;;;14.10;;
11305;SDS011;5708;50.660;6.778;2023-02-15T16:19:22;19.88;;;12.52;;
11305;SDS011;5708;50.660;6.778;2023-02-15T16:21:50;21.55;;;12.93;;
11305;SDS011;5708;50.660;6.778;2023-02-15T16:29:37;22.10;;;14.27;;
11305;SDS011;5708;50.660;6.778;2023-02-15T16:32:14;25.98;;;16.27;;
11305;SDS011;5708;50.660;6.778;2023-02-15T16:37:28;21.40;;;13.48;;
11305;SDS011;5708;50.660;6.778;2023-02-15T16:39:57;24.35;;;14.25;;
11305;SDS011;5708;50.660;6.778;2023-02-15T16:42:23;22.83;;;13.48;;
11305;SDS011;5708;50.660;6.778;2023-02-15T16:44:50;25.42;;;14.27;;
11305;SDS011;5708;50.660;6.778;2023-02-15T16:47:19;27.42;;;16.88;;
11305;SDS011;5708;50.660;6.778;2023-02-15T16:49:49;28.67;;;16.00;;
11305;SDS011;5708;50.660;6.778;2023-02-15T16:52:23;29.08;;;15.95;;
11305;SDS011;5708;50.660;6.778;2023-02-15T16:54:51;30.55;;;17.98;;
11305;SDS011;5708;50.660;6.778;2023-02-15T16:57:29;24.92;;;15.45;;
11305;SDS011;5708;50.660;6.778;2023-02-15T17:00:00;26.08;;;16.45;;
11305;SDS011;5708;50.660;6.778;2023-02-15T17:02:29;29.05;;;18.30;;
11305;SDS011;5708;50.660;6.778;2023-02-15T17:07:40;49.08;;;26.42;;
11305;SDS011;5708;50.660;6.778;2023-02-15T17:10:29;50.63;;;26.25;;
11305;SDS011;5708;50.660;6.778;2023-02-15T17:12:59;42.92;;;23.75;;
11305;SDS011;5708;50.660;6.778;2023-02-15T17:18:18;45.05;;;25.23;;
11305;SDS011;5708;50.660;6.778;2023-02-15T17:20:45;40.38;;;23.45;;
11305;SDS011;5708;50.660;6.778;2023-02-15T17:25:56;37.55;;;23.52;;
11305;SDS011;5708;50.660;6.778;2023-02-15T17:28:23;41.55;;;23.88;;
11305;SDS011;5708;50.660;6.778;2023-02-15T17:30:51;44.25;;;24.58;;
11305;SDS011;5708;50.660;6.778;2023-02-15T17:33:25;42.58;;;24.67;;
11305;SDS011;5708;50.660;6.778;2023-02-15T17:36:05;42.92;;;24.77;;
11305;SDS011;5708;50.660;6.778;2023-02-15T17:38:36;40.90;;;22.50;;
11305;SDS011;5708;50.660;6.778;2023-02-15T17:41:05;38.70;;;22.88;;
11305;SDS011;5708;50.660;6.778;2023-02-15T17:43:30;35.15;;;21.30;;
11305;SDS011;5708;50.660;6.778;2023-02-15T17:45:56;37.25;;;22.52;;
11305;SDS011;5708;50.660;6.778;2023-02-15T17:50:56;32.28;;;18.58;;
11305;SDS011;5708;50.660;6.778;2023-02-15T17:53:22;35.90;;;19.52;;
11305;SDS011;5708;50.660;6.778;2023-02-15T17:55:48;33.80;;;18.75;;
11305;SDS011;5708;50.660;6.778;2023-02-15T17:58:14;33.33;;;18.08;;
11305;SDS011;5708;50.660;6.778;2023-02-15T18:03:45;29.83;;;16.88;;
11305;SDS011;5708;50.660;6.778;2023-02-15T18:06:32;29.90;;;16.13;;
11305;SDS011;5708;50.660;6.778;2023-02-15T18:09:17;28.98;;;17.35;;
11305;SDS011;5708;50.660;6.778;2023-02-15T18:12:11;33.45;;;18.85;;
11305;SDS011;5708;50.660;6.778;2023-02-15T18:14:53;34.10;;;18.55;;
11305;SDS011;5708;50.660;6.778;2023-02-15T18:17:19;30.30;;;16.98;;
11305;SDS011;5708;50.660;6.778;2023-02-15T18:19:47;32.50;;;17.85;;